sensor_id;sensor_type;location;lat;lon;timestamp;temperature;humidity
23497;DHT22;11925;48.122;11.560;2023-04-03T00:01:18;11.20;92.90
23497;DHT22;11925;48.122;11.560;2023-04-03T00:03:48;11.20;92.80
23497;DHT22;11925;48.122;11.560;2023-04-03T00:06:17;11.20;92.90
23497;DHT22;11925;48.122;11.560;2023-04-03T00:08:45;11.20;92.90
23497;DHT22;11925;48.122;11.560;2023-04-03T00:11:14;11.20;92.80
23497;DHT22;11925;48.122;11.560;2023-04-03T00:13:43;11.20;93.00
23497;DHT22;11925;48.122;11.560;2023-04-03T00:16:12;11.10;93.00
23497;DHT22;11925;48.122;11.560;2023-04-03T00:18:41;11.10;93.10
23497;DHT22;11925;48.122;11.560;2023-04-03T00:21:12;11.10;93.10
23497;DHT22;11925;48.122;11.560;2023-04-03T00:23:41;11.20;93.10
23497;DHT22;11925;48.122;11.560;2023-04-03T00:26:09;11.10;93.00
23497;DHT22;11925;48.122;11.560;2023-04-03T00:28:39;11.20;93.10
23497;DHT22;11925;48.122;11.560;2023-04-03T00:31:07;11.20;93.50
23497;DHT22;11925;48.122;11.560;2023-04-03T00:33:36;11.10;93.00
23497;DHT22;11925;48.122;11.560;2023-04-03T00:36:08;11.10;93.00
23497;DHT22;11925;48.122;11.560;2023-04-03T00:38:39;11.10;92.90
23497;DHT22;11925;48.122;11.560;2023-04-03T00:41:08;11.10;92.80
23497;DHT22;11925;48.122;11.560;2023-04-03T00:43:36;11.10;92.90
23497;DHT22;11925;48.122;11.560;2023-04-03T00:46:05;11.10;92.90
23497;DHT22;11925;48.122;11.560;2023-04-03T00:48:37;11.20;92.90
23497;DHT22;11925;48.122;11.560;2023-04-03T00:51:09;11.10;92.90
23497;DHT22;11925;48.122;11.560;2023-04-03T00:53:49;11.10;93.00
23497;DHT22;11925;48.122;11.560;2023-04-03T00:56:21;11.10;93.10
23497;DHT22;11925;48.122;11.560;2023-04-03T00:58:52;11.10;93.10
23497;DHT22;11925;48.122;11.560;2023-04-03T01:01:26;11.10;93.10
23497;DHT22;11925;48.122;11.560;2023-04-03T01:03:55;11.10;93.00
23497;DHT22;11925;48.122;11.560;2023-04-03T01:06:28;11.10;93.10
23497;DHT22;11925;48.122;11.560;2023-04-03T01:09:05;11.10;92.90
23497;DHT22;11925;48.122;11.560;2023-04-03T01:11:34;11.10;93.00
23497;DHT22;11925;48.122;11.560;2023-04-03T01:14:02;11.10;92.90
23497;DHT22;11925;48.122;11.560;2023-04-03T01:16:33;11.00;93.00
23497;DHT22;11925;48.122;11.560;2023-04-03T01:19:02;10.90;93.00
23497;DHT22;11925;48.122;11.560;2023-04-03T01:22:03;11.00;93.00
23497;DHT22;11925;48.122;11.560;2023-04-03T01:24:35;11.00;93.10
23497;DHT22;11925;48.122;11.560;2023-04-03T01:27:09;11.10;93.00
23497;DHT22;11925;48.122;11.560;2023-04-03T01:29:40;11.00;93.10
23497;DHT22;11925;48.122;11.560;2023-04-03T01:32:12;11.00;93.00
23497;DHT22;11925;48.122;11.560;2023-04-03T01:34:41;11.00;93.00
23497;DHT22;11925;48.122;11.560;2023-04-03T01:37:09;11.00;93.10
23497;DHT22;11925;48.122;11.560;2023-04-03T01:39:39;11.00;93.10
23497;DHT22;11925;48.122;11.560;2023-04-03T01:42:07;11.00;93.50
23497;DHT22;11925;48.122;11.560;2023-04-03T01:44:39;11.00;93.20
23497;DHT22;11925;48.122;11.560;2023-04-03T01:47:07;11.10;93.10
23497;DHT22;11925;48.122;11.560;2023-04-03T01:49:39;11.10;93.10
23497;DHT22;11925;48.122;11.560;2023-04-03T01:52:07;11.00;93.10
23497;DHT22;11925;48.122;11.560;2023-04-03T01:54:36;11.00;93.40
23497;DHT22;11925;48.122;11.560;2023-04-03T01:57:05;11.00;93.00
23497;DHT22;11925;48.122;11.560;2023-04-03T01:59:34;11.00;93.00
23497;DHT22;11925;48.122;11.560;2023-04-03T02:02:02;11.00;93.10
23497;DHT22;11925;48.122;11.560;2023-04-03T02:04:30;11.00;93.10
23497;DHT22;11925;48.122;11.560;2023-04-03T02:07:00;10.70;93.00
23497;DHT22;11925;48.122;11.560;2023-04-03T02:09:28;11.00;93.10
23497;DHT22;11925;48.122;11.560;2023-04-03T02:11:57;11.10;93.00
23497;DHT22;11925;48.122;11.560;2023-04-03T02:14:25;11.00;93.10
23497;DHT22;11925;48.122;11.560;2023-04-03T02:16:54;11.00;93.50
23497;DHT22;11925;48.122;11.560;2023-04-03T02:19:23;11.00;93.10
23497;DHT22;11925;48.122;11.560;2023-04-03T02:21:51;11.00;93.20
23497;DHT22;11925;48.122;11.560;2023-04-03T02:24:21;11.00;93.20
23497;DHT22;11925;48.122;11.560;2023-04-03T02:26:49;11.00;93.20
23497;DHT22;11925;48.122;11.560;2023-04-03T02:29:18;11.00;93.10
23497;DHT22;11925;48.122;11.560;2023-04-03T02:31:47;11.00;93.10
23497;DHT22;11925;48.122;11.560;2023-04-03T02:34:15;11.00;93.10
23497;DHT22;11925;48.122;11.560;2023-04-03T02:36:45;10.90;93.10
23497;DHT22;11925;48.122;11.560;2023-04-03T02:39:14;11.00;93.00
23497;DHT22;11925;48.122;11.560;2023-04-03T02:41:45;11.00;93.00
23497;DHT22;11925;48.122;11.560;2023-04-03T02:44:19;11.00;93.10
23497;DHT22;11925;48.122;11.560;2023-04-03T02:46:47;11.00;93.10
23497;DHT22;11925;48.122;11.560;2023-04-03T02:49:16;11.00;92.90
23497;DHT22;11925;48.122;11.560;2023-04-03T02:51:45;11.00;92.90
23497;DHT22;11925;48.122;11.560;2023-04-03T02:54:14;11.00;92.80
23497;DHT22;11925;48.122;11.560;2023-04-03T02:56:48;11.00;92.80
23497;DHT22;11925;48.122;11.560;2023-04-03T02:59:17;11.00;92.70
23497;DHT22;11925;48.122;11.560;2023-04-03T03:01:45;11.00;92.80
23497;DHT22;11925;48.122;11.560;2023-04-03T03:04:14;11.00;92.60
23497;DHT22;11925;48.122;11.560;2023-04-03T03:06:42;10.70;92.60
23497;DHT22;11925;48.122;11.560;2023-04-03T03:09:11;10.90;92.60
23497;DHT22;11925;48.122;11.560;2023-04-03T03:11:42;10.90;92.70
23497;DHT22;11925;48.122;11.560;2023-04-03T03:14:11;10.90;92.60
23497;DHT22;11925;48.122;11.560;2023-04-03T03:16:40;10.90;92.50
23497;DHT22;11925;48.122;11.560;2023-04-03T03:19:08;11.00;92.50
23497;DHT22;11925;48.122;11.560;2023-04-03T03:21:37;10.90;92.50
23497;DHT22;11925;48.122;11.560;2023-04-03T03:24:06;10.90;92.50
23497;DHT22;11925;48.122;11.560;2023-04-03T03:26:35;10.90;92.50
23497;DHT22;11925;48.122;11.560;2023-04-03T03:29:03;11.00;92.50
23497;DHT22;11925;48.122;11.560;2023-04-03T03:31:33;10.90;92.40
23497;DHT22;11925;48.122;11.560;2023-04-03T03:34:02;10.90;92.40
23497;DHT22;11925;48.122;11.560;2023-04-03T03:36:30;10.90;92.50
23497;DHT22;11925;48.122;11.560;2023-04-03T03:38:59;10.90;92.50
23497;DHT22;11925;48.122;11.560;2023-04-03T03:41:28;11.00;92.60
23497;DHT22;11925;48.122;11.560;2023-04-03T03:43:57;11.00;92.40
23497;DHT22;11925;48.122;11.560;2023-04-03T03:46:27;11.00;92.40
23497;DHT22;11925;48.122;11.560;2023-04-03T03:48:57;11.00;92.80
23497;DHT22;11925;48.122;11.560;2023-04-03T03:51:26;11.00;92.80
23497;DHT22;11925;48.122;11.560;2023-04-03T03:53:55;11.00;92.40
23497;DHT22;11925;48.122;11.560;2023-04-03T03:56:23;11.00;92.40
23497;DHT22;11925;48.122;11.560;2023-04-03T03:58:52;10.90;92.50
23497;DHT22;11925;48.122;11.560;2023-04-03T04:01:23;10.90;92.50
23497;DHT22;11925;48.122;11.560;2023-04-03T04:03:51;10.90;92.50
23497;DHT22;11925;48.122;11.560;2023-04-03T04:06:26;10.90;92.40
23497;DHT22;11925;48.122;11.560;2023-04-03T04:08:58;10.90;92.50
23497;DHT22;11925;48.122;11.560;2023-04-03T04:11:26;11.00;92.30
23497;DHT22;11925;48.122;11.560;2023-04-03T04:13:55;11.00;92.30
23497;DHT22;11925;48.122;11.560;2023-04-03T04:16:26;11.00;92.30
23497;DHT22;11925;48.122;11.560;2023-04-03T04:18:58;11.00;92.30
23497;DHT22;11925;48.122;11.560;2023-04-03T04:21:28;10.90;92.20
23497;DHT22;11925;48.122;11.560;2023-04-03T04:23:56;11.00;92.10
23497;DHT22;11925;48.122;11.560;2023-04-03T04:26:25;11.00;92.00
23497;DHT22;11925;48.122;11.560;2023-04-03T04:28:53;11.00;91.90
23497;DHT22;11925;48.122;11.560;2023-04-03T04:31:22;10.90;91.90
23497;DHT22;11925;48.122;11.560;2023-04-03T04:33:51;10.90;91.90
23497;DHT22;11925;48.122;11.560;2023-04-03T04:36:19;11.00;91.60
23497;DHT22;11925;48.122;11.560;2023-04-03T04:38:50;10.90;91.70
23497;DHT22;11925;48.122;11.560;2023-04-03T04:41:22;11.00;91.70
23497;DHT22;11925;48.122;11.560;2023-04-03T04:43:51;10.90;91.90
23497;DHT22;11925;48.122;11.560;2023-04-03T04:46:20;10.90;91.90
23497;DHT22;11925;48.122;11.560;2023-04-03T04:48:53;10.90;91.90
23497;DHT22;11925;48.122;11.560;2023-04-03T04:51:23;10.90;91.80
23497;DHT22;11925;48.122;11.560;2023-04-03T04:53:53;10.90;92.00
23497;DHT22;11925;48.122;11.560;2023-04-03T04:56:23;10.90;91.90
23497;DHT22;11925;48.122;11.560;2023-04-03T04:58:54;10.90;92.00
23497;DHT22;11925;48.122;11.560;2023-04-03T05:01:24;10.90;92.00
23497;DHT22;11925;48.122;11.560;2023-04-03T05:04:14;10.80;92.00
23497;DHT22;11925;48.122;11.560;2023-04-03T05:06:45;10.90;92.10
23497;DHT22;11925;48.122;11.560;2023-04-03T05:09:19;10.80;92.00
23497;DHT22;11925;48.122;11.560;2023-04-03T05:11:49;10.90;91.80
23497;DHT22;11925;48.122;11.560;2023-04-03T05:14:20;10.90;91.80
23497;DHT22;11925;48.122;11.560;2023-04-03T05:16:49;11.00;91.70
23497;DHT22;11925;48.122;11.560;2023-04-03T05:19:22;10.90;91.70
23497;DHT22;11925;48.122;11.560;2023-04-03T05:21:51;10.90;91.70
23497;DHT22;11925;48.122;11.560;2023-04-03T05:24:21;10.90;91.70
23497;DHT22;11925;48.122;11.560;2023-04-03T05:26:50;10.50;91.70
23497;DHT22;11925;48.122;11.560;2023-04-03T05:29:18;10.90;91.70
23497;DHT22;11925;48.122;11.560;2023-04-03T05:31:49;10.40;91.60
23497;DHT22;11925;48.122;11.560;2023-04-03T05:34:18;10.90;91.60
23497;DHT22;11925;48.122;11.560;2023-04-03T05:36:49;10.90;91.60
23497;DHT22;11925;48.122;11.560;2023-04-03T05:39:18;10.90;91.50
23497;DHT22;11925;48.122;11.560;2023-04-03T05:41:48;11.00;91.40
23497;DHT22;11925;48.122;11.560;2023-04-03T05:44:17;10.90;91.50
23497;DHT22;11925;48.122;11.560;2023-04-03T05:46:47;10.90;91.50
23497;DHT22;11925;48.122;11.560;2023-04-03T05:49:15;10.90;91.40
23497;DHT22;11925;48.122;11.560;2023-04-03T05:51:44;10.90;91.50
23497;DHT22;11925;48.122;11.560;2023-04-03T05:54:29;10.90;91.50
23497;DHT22;11925;48.122;11.560;2023-04-03T05:57:17;10.90;91.50
23497;DHT22;11925;48.122;11.560;2023-04-03T05:59:46;10.90;91.50
23497;DHT22;11925;48.122;11.560;2023-04-03T06:02:16;10.90;91.60
23497;DHT22;11925;48.122;11.560;2023-04-03T06:04:47;11.20;91.60
23497;DHT22;11925;48.122;11.560;2023-04-03T06:07:17;10.90;91.50
23497;DHT22;11925;48.122;11.560;2023-04-03T06:09:49;10.90;91.50
23497;DHT22;11925;48.122;11.560;2023-04-03T06:12:19;10.90;91.50
23497;DHT22;11925;48.122;11.560;2023-04-03T06:14:48;10.90;91.60
23497;DHT22;11925;48.122;11.560;2023-04-03T06:17:17;10.80;91.40
23497;DHT22;11925;48.122;11.560;2023-04-03T06:19:47;10.90;91.40
23497;DHT22;11925;48.122;11.560;2023-04-03T06:22:15;10.90;91.30
23497;DHT22;11925;48.122;11.560;2023-04-03T06:24:45;10.90;91.20
23497;DHT22;11925;48.122;11.560;2023-04-03T06:27:13;10.90;91.20
23497;DHT22;11925;48.122;11.560;2023-04-03T06:29:43;11.00;91.00
23497;DHT22;11925;48.122;11.560;2023-04-03T06:32:12;10.90;91.00
23497;DHT22;11925;48.122;11.560;2023-04-03T06:34:41;10.90;91.00
23497;DHT22;11925;48.122;11.560;2023-04-03T06:37:10;10.80;91.00
23497;DHT22;11925;48.122;11.560;2023-04-03T06:39:41;10.80;91.00
23497;DHT22;11925;48.122;11.560;2023-04-03T06:42:09;10.90;91.00
23497;DHT22;11925;48.122;11.560;2023-04-03T06:44:48;10.90;91.00
23497;DHT22;11925;48.122;11.560;2023-04-03T06:47:17;10.90;90.80
23497;DHT22;11925;48.122;11.560;2023-04-03T06:49:45;11.00;90.70
23497;DHT22;11925;48.122;11.560;2023-04-03T06:52:14;10.90;90.50
23497;DHT22;11925;48.122;11.560;2023-04-03T06:54:42;10.90;90.60
23497;DHT22;11925;48.122;11.560;2023-04-03T06:57:10;10.90;90.70
23497;DHT22;11925;48.122;11.560;2023-04-03T06:59:39;10.90;90.70
23497;DHT22;11925;48.122;11.560;2023-04-03T07:02:11;10.80;90.70
23497;DHT22;11925;48.122;11.560;2023-04-03T07:04:40;10.80;90.70
23497;DHT22;11925;48.122;11.560;2023-04-03T07:07:08;10.80;90.70
23497;DHT22;11925;48.122;11.560;2023-04-03T07:09:36;10.80;90.80
23497;DHT22;11925;48.122;11.560;2023-04-03T07:12:05;10.80;90.80
23497;DHT22;11925;48.122;11.560;2023-04-03T07:14:33;10.90;90.70
23497;DHT22;11925;48.122;11.560;2023-04-03T07:17:01;10.80;90.60
23497;DHT22;11925;48.122;11.560;2023-04-03T07:19:31;10.80;90.60
23497;DHT22;11925;48.122;11.560;2023-04-03T07:21:59;10.80;90.60
23497;DHT22;11925;48.122;11.560;2023-04-03T07:24:27;10.80;90.60
23497;DHT22;11925;48.122;11.560;2023-04-03T07:26:56;10.80;90.70
23497;DHT22;11925;48.122;11.560;2023-04-03T07:29:24;10.80;90.60
23497;DHT22;11925;48.122;11.560;2023-04-03T07:31:52;10.80;90.60
23497;DHT22;11925;48.122;11.560;2023-04-03T07:34:22;10.80;90.60
23497;DHT22;11925;48.122;11.560;2023-04-03T07:36:52;10.80;90.50
23497;DHT22;11925;48.122;11.560;2023-04-03T07:39:20;10.80;90.40
23497;DHT22;11925;48.122;11.560;2023-04-03T07:41:48;10.80;90.40
23497;DHT22;11925;48.122;11.560;2023-04-03T07:44:17;10.80;90.40
23497;DHT22;11925;48.122;11.560;2023-04-03T07:46:45;10.80;90.40
23497;DHT22;11925;48.122;11.560;2023-04-03T07:49:14;10.70;90.30
23497;DHT22;11925;48.122;11.560;2023-04-03T07:51:43;10.70;90.30
23497;DHT22;11925;48.122;11.560;2023-04-03T07:54:13;10.70;90.30
23497;DHT22;11925;48.122;11.560;2023-04-03T07:56:41;10.70;90.40
23497;DHT22;11925;48.122;11.560;2023-04-03T07:59:10;10.80;90.20
23497;DHT22;11925;48.122;11.560;2023-04-03T08:01:39;10.80;89.30
23497;DHT22;11925;48.122;11.560;2023-04-03T08:04:07;10.80;89.80
23497;DHT22;11925;48.122;11.560;2023-04-03T08:06:35;10.70;89.70
23497;DHT22;11925;48.122;11.560;2023-04-03T08:09:15;10.70;89.40
23497;DHT22;11925;48.122;11.560;2023-04-03T08:11:43;10.70;89.90
23497;DHT22;11925;48.122;11.560;2023-04-03T08:14:13;10.70;89.50
23497;DHT22;11925;48.122;11.560;2023-04-03T08:16:45;10.70;89.40
23497;DHT22;11925;48.122;11.560;2023-04-03T08:19:14;10.70;89.10
23497;DHT22;11925;48.122;11.560;2023-04-03T08:21:52;10.70;89.30
23497;DHT22;11925;48.122;11.560;2023-04-03T08:24:22;10.70;89.40
23497;DHT22;11925;48.122;11.560;2023-04-03T08:26:50;10.70;89.50
23497;DHT22;11925;48.122;11.560;2023-04-03T08:29:19;10.70;89.30
23497;DHT22;11925;48.122;11.560;2023-04-03T08:31:48;10.70;89.40
23497;DHT22;11925;48.122;11.560;2023-04-03T08:34:18;10.70;89.30
23497;DHT22;11925;48.122;11.560;2023-04-03T08:36:46;10.70;89.00
23497;DHT22;11925;48.122;11.560;2023-04-03T08:39:15;10.70;89.40
23497;DHT22;11925;48.122;11.560;2023-04-03T08:41:46;10.60;89.50
23497;DHT22;11925;48.122;11.560;2023-04-03T08:44:21;10.70;89.70
23497;DHT22;11925;48.122;11.560;2023-04-03T08:47:00;10.60;89.50
23497;DHT22;11925;48.122;11.560;2023-04-03T08:49:32;10.70;89.90
23497;DHT22;11925;48.122;11.560;2023-04-03T08:52:04;10.60;89.80
23497;DHT22;11925;48.122;11.560;2023-04-03T08:54:46;10.60;89.50
23497;DHT22;11925;48.122;11.560;2023-04-03T08:57:18;10.60;89.70
23497;DHT22;11925;48.122;11.560;2023-04-03T08:59:48;10.60;89.80
23497;DHT22;11925;48.122;11.560;2023-04-03T09:02:24;10.60;89.50
23497;DHT22;11925;48.122;11.560;2023-04-03T09:04:54;10.70;89.70
23497;DHT22;11925;48.122;11.560;2023-04-03T09:07:30;10.70;89.50
23497;DHT22;11925;48.122;11.560;2023-04-03T09:10:01;10.70;89.50
23497;DHT22;11925;48.122;11.560;2023-04-03T09:12:37;10.70;89.10
23497;DHT22;11925;48.122;11.560;2023-04-03T09:15:14;10.80;88.80
23497;DHT22;11925;48.122;11.560;2023-04-03T09:17:52;11.10;88.90
23497;DHT22;11925;48.122;11.560;2023-04-03T09:20:26;10.70;89.00
23497;DHT22;11925;48.122;11.560;2023-04-03T09:22:58;10.60;89.10
23497;DHT22;11925;48.122;11.560;2023-04-03T09:25:29;10.60;89.30
23497;DHT22;11925;48.122;11.560;2023-04-03T09:28:03;10.60;89.00
23497;DHT22;11925;48.122;11.560;2023-04-03T09:30:36;10.60;89.30
23497;DHT22;11925;48.122;11.560;2023-04-03T09:33:05;10.60;89.40
23497;DHT22;11925;48.122;11.560;2023-04-03T09:35:36;10.60;89.30
23497;DHT22;11925;48.122;11.560;2023-04-03T09:38:17;10.60;89.20
23497;DHT22;11925;48.122;11.560;2023-04-03T09:40:48;10.60;89.10
23497;DHT22;11925;48.122;11.560;2023-04-03T09:43:29;10.60;89.10
23497;DHT22;11925;48.122;11.560;2023-04-03T09:46:24;10.60;88.90
23497;DHT22;11925;48.122;11.560;2023-04-03T09:48:57;10.60;88.80
23497;DHT22;11925;48.122;11.560;2023-04-03T09:51:35;10.50;88.90
23497;DHT22;11925;48.122;11.560;2023-04-03T09:54:34;10.50;89.30
23497;DHT22;11925;48.122;11.560;2023-04-03T09:57:09;10.50;89.40
23497;DHT22;11925;48.122;11.560;2023-04-03T09:59:56;10.60;89.30
23497;DHT22;11925;48.122;11.560;2023-04-03T10:02:35;10.60;89.80
23497;DHT22;11925;48.122;11.560;2023-04-03T10:05:28;10.60;88.90
23497;DHT22;11925;48.122;11.560;2023-04-03T10:08:09;10.60;88.60
23497;DHT22;11925;48.122;11.560;2023-04-03T10:10:38;10.50;88.70
23497;DHT22;11925;48.122;11.560;2023-04-03T10:13:10;10.50;88.80
23497;DHT22;11925;48.122;11.560;2023-04-03T10:15:51;10.50;88.70
23497;DHT22;11925;48.122;11.560;2023-04-03T10:18:31;10.50;88.80
23497;DHT22;11925;48.122;11.560;2023-04-03T10:21:04;10.50;88.90
23497;DHT22;11925;48.122;11.560;2023-04-03T10:23:51;10.50;88.70
23497;DHT22;11925;48.122;11.560;2023-04-03T10:26:29;10.50;88.00
23497;DHT22;11925;48.122;11.560;2023-04-03T10:29:06;10.50;88.00
23497;DHT22;11925;48.122;11.560;2023-04-03T10:31:43;10.50;88.10
23497;DHT22;11925;48.122;11.560;2023-04-03T10:34:19;10.50;87.80
23497;DHT22;11925;48.122;11.560;2023-04-03T10:36:56;10.60;87.30
23497;DHT22;11925;48.122;11.560;2023-04-03T10:39:33;10.60;87.80
23497;DHT22;11925;48.122;11.560;2023-04-03T10:42:09;10.60;87.80
23497;DHT22;11925;48.122;11.560;2023-04-03T10:45:03;10.60;87.90
23497;DHT22;11925;48.122;11.560;2023-04-03T10:47:42;10.50;88.20
23497;DHT22;11925;48.122;11.560;2023-04-03T10:50:25;10.50;88.10
23497;DHT22;11925;48.122;11.560;2023-04-03T10:52:56;10.50;88.00
23497;DHT22;11925;48.122;11.560;2023-04-03T10:55:33;10.50;88.10
23497;DHT22;11925;48.122;11.560;2023-04-03T10:58:04;10.50;88.00
23497;DHT22;11925;48.122;11.560;2023-04-03T11:00:38;10.50;88.30
23497;DHT22;11925;48.122;11.560;2023-04-03T11:03:12;10.50;88.10
23497;DHT22;11925;48.122;11.560;2023-04-03T11:05:43;10.50;88.10
23497;DHT22;11925;48.122;11.560;2023-04-03T11:08:19;10.50;87.90
23497;DHT22;11925;48.122;11.560;2023-04-03T11:10:50;10.50;88.40
23497;DHT22;11925;48.122;11.560;2023-04-03T11:13:22;10.50;88.70
23497;DHT22;11925;48.122;11.560;2023-04-03T11:15:53;10.50;88.70
23497;DHT22;11925;48.122;11.560;2023-04-03T11:18:28;10.50;88.70
23497;DHT22;11925;48.122;11.560;2023-04-03T11:21:02;10.50;89.00
23497;DHT22;11925;48.122;11.560;2023-04-03T11:23:35;10.50;89.00
23497;DHT22;11925;48.122;11.560;2023-04-03T11:26:18;10.50;88.70
23497;DHT22;11925;48.122;11.560;2023-04-03T11:28:52;10.40;88.90
23497;DHT22;11925;48.122;11.560;2023-04-03T11:31:31;10.40;88.80
23497;DHT22;11925;48.122;11.560;2023-04-03T11:34:12;10.50;88.70
23497;DHT22;11925;48.122;11.560;2023-04-03T11:36:46;10.40;88.40
23497;DHT22;11925;48.122;11.560;2023-04-03T11:39:22;10.40;88.40
23497;DHT22;11925;48.122;11.560;2023-04-03T11:41:51;10.50;88.40
23497;DHT22;11925;48.122;11.560;2023-04-03T11:44:38;10.50;88.20
23497;DHT22;11925;48.122;11.560;2023-04-03T11:47:08;10.40;87.90
23497;DHT22;11925;48.122;11.560;2023-04-03T11:49:56;10.50;87.70
23497;DHT22;11925;48.122;11.560;2023-04-03T11:52:59;10.40;87.50
23497;DHT22;11925;48.122;11.560;2023-04-03T11:55:58;10.50;86.80
23497;DHT22;11925;48.122;11.560;2023-04-03T11:58:29;10.40;87.00
23497;DHT22;11925;48.122;11.560;2023-04-03T12:01:00;10.50;86.90
23497;DHT22;11925;48.122;11.560;2023-04-03T12:03:30;10.50;86.50
23497;DHT22;11925;48.122;11.560;2023-04-03T12:09:27;10.50;86.70
23497;DHT22;11925;48.122;11.560;2023-04-03T12:11:58;10.50;86.90
23497;DHT22;11925;48.122;11.560;2023-04-03T12:14:29;10.40;86.80
23497;DHT22;11925;48.122;11.560;2023-04-03T12:16:57;10.40;86.60
23497;DHT22;11925;48.122;11.560;2023-04-03T12:19:35;10.50;86.80
23497;DHT22;11925;48.122;11.560;2023-04-03T12:22:13;10.50;86.60
23497;DHT22;11925;48.122;11.560;2023-04-03T12:24:44;10.40;86.50
23497;DHT22;11925;48.122;11.560;2023-04-03T12:27:33;10.50;86.30
23497;DHT22;11925;48.122;11.560;2023-04-03T12:30:14;10.50;86.20
23497;DHT22;11925;48.122;11.560;2023-04-03T12:33:17;10.50;86.10
23497;DHT22;11925;48.122;11.560;2023-04-03T12:35:58;10.50;85.70
23497;DHT22;11925;48.122;11.560;2023-04-03T12:38:47;10.50;85.10
23497;DHT22;11925;48.122;11.560;2023-04-03T12:41:35;10.40;84.80
23497;DHT22;11925;48.122;11.560;2023-04-03T12:44:19;10.40;84.80
23497;DHT22;11925;48.122;11.560;2023-04-03T12:46:51;10.40;84.80
23497;DHT22;11925;48.122;11.560;2023-04-03T12:49:33;10.40;85.00
23497;DHT22;11925;48.122;11.560;2023-04-03T12:52:05;10.40;84.80
23497;DHT22;11925;48.122;11.560;2023-04-03T12:54:42;10.40;85.00
23497;DHT22;11925;48.122;11.560;2023-04-03T12:57:17;10.40;85.30
23497;DHT22;11925;48.122;11.560;2023-04-03T12:59:46;10.40;85.90
23497;DHT22;11925;48.122;11.560;2023-04-03T13:02:21;10.40;85.40
23497;DHT22;11925;48.122;11.560;2023-04-03T13:04:52;10.40;84.20
23497;DHT22;11925;48.122;11.560;2023-04-03T13:07:24;10.40;83.80
23497;DHT22;11925;48.122;11.560;2023-04-03T13:09:58;10.40;84.10
23497;DHT22;11925;48.122;11.560;2023-04-03T13:12:27;10.40;84.40
23497;DHT22;11925;48.122;11.560;2023-04-03T13:15:00;10.40;84.70
23497;DHT22;11925;48.122;11.560;2023-04-03T13:17:31;10.40;84.50
23497;DHT22;11925;48.122;11.560;2023-04-03T13:20:10;10.40;84.00
23497;DHT22;11925;48.122;11.560;2023-04-03T13:22:43;10.40;84.70
23497;DHT22;11925;48.122;11.560;2023-04-03T13:25:15;10.40;85.10
23497;DHT22;11925;48.122;11.560;2023-04-03T13:27:44;10.40;84.70
23497;DHT22;11925;48.122;11.560;2023-04-03T13:30:21;10.40;84.90
23497;DHT22;11925;48.122;11.560;2023-04-03T13:32:51;10.40;84.50
23497;DHT22;11925;48.122;11.560;2023-04-03T13:35:32;10.40;84.70
23497;DHT22;11925;48.122;11.560;2023-04-03T13:38:05;10.40;84.10
23497;DHT22;11925;48.122;11.560;2023-04-03T13:40:47;10.40;84.40
23497;DHT22;11925;48.122;11.560;2023-04-03T13:43:21;10.40;84.40
23497;DHT22;11925;48.122;11.560;2023-04-03T13:46:04;10.40;84.30
23497;DHT22;11925;48.122;11.560;2023-04-03T13:48:41;10.30;84.20
23497;DHT22;11925;48.122;11.560;2023-04-03T13:51:21;10.40;84.30
23497;DHT22;11925;48.122;11.560;2023-04-03T13:53:52;10.40;83.80
23497;DHT22;11925;48.122;11.560;2023-04-03T13:56:30;10.40;83.10
23497;DHT22;11925;48.122;11.560;2023-04-03T13:59:21;10.30;82.70
23497;DHT22;11925;48.122;11.560;2023-04-03T14:01:52;10.30;82.20
23497;DHT22;11925;48.122;11.560;2023-04-03T14:04:24;10.40;82.50
23497;DHT22;11925;48.122;11.560;2023-04-03T14:06:54;10.40;82.30
23497;DHT22;11925;48.122;11.560;2023-04-03T14:09:25;10.40;82.00
23497;DHT22;11925;48.122;11.560;2023-04-03T14:11:58;10.40;81.50
23497;DHT22;11925;48.122;11.560;2023-04-03T14:14:31;10.30;81.50
23497;DHT22;11925;48.122;11.560;2023-04-03T14:17:02;10.30;81.10
23497;DHT22;11925;48.122;11.560;2023-04-03T14:19:33;10.30;81.60
23497;DHT22;11925;48.122;11.560;2023-04-03T14:22:14;10.30;81.70
23497;DHT22;11925;48.122;11.560;2023-04-03T14:24:43;10.30;82.00
23497;DHT22;11925;48.122;11.560;2023-04-03T14:27:17;10.30;82.10
23497;DHT22;11925;48.122;11.560;2023-04-03T14:29:47;10.40;81.60
23497;DHT22;11925;48.122;11.560;2023-04-03T14:32:17;10.30;81.20
23497;DHT22;11925;48.122;11.560;2023-04-03T14:34:46;10.30;81.40
23497;DHT22;11925;48.122;11.560;2023-04-03T14:37:16;10.30;81.00
23497;DHT22;11925;48.122;11.560;2023-04-03T14:39:45;10.30;81.10
23497;DHT22;11925;48.122;11.560;2023-04-03T14:42:18;10.30;81.60
23497;DHT22;11925;48.122;11.560;2023-04-03T14:44:47;10.30;80.90
23497;DHT22;11925;48.122;11.560;2023-04-03T14:47:19;10.30;81.20
23497;DHT22;11925;48.122;11.560;2023-04-03T14:52:31;10.30;79.50
23497;DHT22;11925;48.122;11.560;2023-04-03T14:55:00;10.30;80.20
23497;DHT22;11925;48.122;11.560;2023-04-03T14:57:30;10.30;79.70
23497;DHT22;11925;48.122;11.560;2023-04-03T14:59:59;10.30;79.50
23497;DHT22;11925;48.122;11.560;2023-04-03T15:02:30;10.30;79.00
23497;DHT22;11925;48.122;11.560;2023-04-03T15:05:03;10.30;80.10
23497;DHT22;11925;48.122;11.560;2023-04-03T15:07:35;10.30;79.80
23497;DHT22;11925;48.122;11.560;2023-04-03T15:10:15;10.30;80.20
23497;DHT22;11925;48.122;11.560;2023-04-03T15:12:45;10.30;80.70
23497;DHT22;11925;48.122;11.560;2023-04-03T15:15:17;10.40;80.80
23497;DHT22;11925;48.122;11.560;2023-04-03T15:17:48;10.40;79.80
23497;DHT22;11925;48.122;11.560;2023-04-03T15:20:23;10.30;79.60
23497;DHT22;11925;48.122;11.560;2023-04-03T15:22:52;10.30;79.20
23497;DHT22;11925;48.122;11.560;2023-04-03T15:27:50;10.30;77.90
23497;DHT22;11925;48.122;11.560;2023-04-03T15:30:19;10.30;78.50
23497;DHT22;11925;48.122;11.560;2023-04-03T15:32:48;10.30;78.80
23497;DHT22;11925;48.122;11.560;2023-04-03T15:35:17;10.30;78.90
23497;DHT22;11925;48.122;11.560;2023-04-03T15:37:45;10.30;78.80
23497;DHT22;11925;48.122;11.560;2023-04-03T15:40:15;10.30;78.70
23497;DHT22;11925;48.122;11.560;2023-04-03T15:42:43;10.30;78.80
23497;DHT22;11925;48.122;11.560;2023-04-03T15:45:13;10.30;78.70
23497;DHT22;11925;48.122;11.560;2023-04-03T15:47:42;10.30;78.30
23497;DHT22;11925;48.122;11.560;2023-04-03T15:50:10;10.30;78.10
23497;DHT22;11925;48.122;11.560;2023-04-03T15:52:39;10.30;78.10
23497;DHT22;11925;48.122;11.560;2023-04-03T15:55:07;10.30;78.10